Main page
METAR-TAF:

METAR-TAF

Airports :

Conakry International Airport

Conakry, Guinea

latitude: 09-34N, longitude: 013-37W, elevation: 26 m

Current weather observation

The report was made 52 minutes ago, at 20:00 UTC
Wind 8 kt from the West
Temperature 28°C
Humidity 66%
Pressure 1009 hPa
Visibility: 4000 m
Scattered clouds at a height of 11000 ft
haze

METAR: GUCY 212000Z 27008KT 4000 HZ SCT110 28/21 Q1009 NOSIG

Time: 20:52 (20:52 UTC)

Forecast

The report was made 3 hours and 52 minutes ago, at 17:00 UTC
Forecast valid from 21 at 18 UTC to 22 at 24 UTC
Wind 6 kt from the Northwest
Visibility: 5000 m
Few clouds at a height of 1500 ft
Scattered clouds at a height of 11000 ft
haze
Probability 30% :
Temporary
from 21 at 24 UTC to 22 at 07 UTC
Wind 2 kt from variable directions
Visibility: 2000 m
Few clouds at a height of 1500 ft
Broken clouds at a height of 11000 ft
mist

TAF: GUCY 211700Z 2118/2224 32006KT 5000 HZ FEW015 SCT110 PROB30 TEMPO 2124/2207 VRB02KT 2000 BR FEW015 BKN110

Weather observations and forecasts of more than 4000 airports (METAR and TAF reports).

The available stations are represented by yellow and red dots on the map.

Hover mouse over dot to see the name of the station.

Then click to see weather observations and forecasts.

To change the map : click on the green buttons with a black cross to zoom in, on the green button with a dash to zoom out, or on the green arrows for adjacent maps.


METAR-TAF: